FDX590 PANC-KLAX
Flight info
| Callsign | FDX590 |
|---|---|
| Flight time | 4h 43m |
| Altitude | 33000 |
| Route | MDO B453 KYLLE/N0469F350 B453 BOXER FOT ENI BURGL BAYST1 |
| Aircraft | MD11/H-SDE1E2E3FGHIJ2J3J4J5M1RWXY/LB1D1 |
Departure
| Time | 2026-04-25 00:56 |
|---|---|
| Airport | Ted Stevens Anchorage International Airport (PANC) |
Arrival
| Time | 2026-04-25 05:39 |
|---|---|
| Airport | Los Angeles International Airport (KLAX) |
| Time | Latitude | Longitude | Altitude | Speed | Heading |
|---|---|---|---|---|---|
| 2026-04-25 00:35 | 61.19626 | -150.00142 | 163 ft | 0 kts | 255° |
| 2026-04-25 00:39 | 61.19626 | -150.00143 | 163 ft | 0 kts | 255° |
| 2026-04-25 00:40 | 61.19623 | -150.00165 | 163 ft | 2 kts | 255° |
| 2026-04-25 00:40 | 61.19615 | -150.00229 | 163 ft | 6 kts | 255° |
| 2026-04-25 00:40 | 61.19601 | -150.00342 | 163 ft | 9 kts | 255° |
| 2026-04-25 00:40 | 61.19584 | -150.00501 | 163 ft | 12 kts | 261° |
| 2026-04-25 00:41 | 61.19569 | -150.00702 | 163 ft | 15 kts | 259° |
| 2026-04-25 00:41 | 61.19506 | -150.00839 | 162 ft | 14 kts | 184° |
| 2026-04-25 00:41 | 61.19403 | -150.00800 | 163 ft | 15 kts | 160° |
| 2026-04-25 00:41 | 61.19295 | -150.00728 | 162 ft | 16 kts | 163° |
| 2026-04-25 00:42 | 61.19181 | -150.00662 | 162 ft | 17 kts | 165° |
| 2026-04-25 00:42 | 61.19060 | -150.00598 | 163 ft | 18 kts | 166° |
| 2026-04-25 00:42 | 61.18937 | -150.00529 | 163 ft | 18 kts | 164° |
| 2026-04-25 00:42 | 61.18808 | -150.00455 | 162 ft | 19 kts | 164° |
| 2026-04-25 00:43 | 61.18677 | -150.00378 | 163 ft | 20 kts | 164° |
| 2026-04-25 00:43 | 61.18541 | -150.00299 | 162 ft | 20 kts | 165° |
| 2026-04-25 00:43 | 61.18401 | -150.00221 | 162 ft | 21 kts | 165° |
| 2026-04-25 00:43 | 61.18259 | -150.00137 | 163 ft | 21 kts | 164° |
| 2026-04-25 00:44 | 61.18115 | -150.00055 | 162 ft | 21 kts | 165° |
| 2026-04-25 00:44 | 61.17966 | -149.99970 | 162 ft | 22 kts | 163° |
| 2026-04-25 00:44 | 61.17816 | -149.99883 | 163 ft | 22 kts | 165° |
| 2026-04-25 00:44 | 61.17665 | -149.99794 | 162 ft | 22 kts | 164° |
| 2026-04-25 00:45 | 61.17520 | -149.99712 | 163 ft | 0 kts | 165° |
| 2026-04-25 00:45 | 61.17520 | -149.99710 | 162 ft | 0 kts | 165° |
| 2026-04-25 00:45 | 61.17502 | -149.99701 | 162 ft | 6 kts | 165° |
| 2026-04-25 00:45 | 61.17444 | -149.99669 | 162 ft | 9 kts | 165° |
| 2026-04-25 00:46 | 61.17374 | -149.99631 | 162 ft | 11 kts | 166° |
| 2026-04-25 00:46 | 61.17319 | -149.99602 | 162 ft | 3 kts | 165° |
| 2026-04-25 00:46 | 61.17311 | -149.99596 | 162 ft | 2 kts | 165° |
| 2026-04-25 00:47 | 61.17281 | -149.99579 | 162 ft | 5 kts | 165° |
| 2026-04-25 00:47 | 61.17237 | -149.99554 | 162 ft | 6 kts | 165° |
| 2026-04-25 00:47 | 61.17219 | -149.99545 | 162 ft | 0 kts | 165° |
| 2026-04-25 00:47 | 61.17209 | -149.99539 | 162 ft | 2 kts | 165° |
| 2026-04-25 00:48 | 61.17207 | -149.99539 | 162 ft | 0 kts | 165° |
| 2026-04-25 00:48 | 61.17205 | -149.99538 | 162 ft | 0 kts | 165° |
| 2026-04-25 00:48 | 61.17203 | -149.99536 | 162 ft | 0 kts | 165° |
| 2026-04-25 00:49 | 61.17198 | -149.99533 | 162 ft | 1 kts | 165° |
| 2026-04-25 00:49 | 61.17197 | -149.99533 | 162 ft | 0 kts | 165° |
| 2026-04-25 00:49 | 61.17194 | -149.99532 | 162 ft | 1 kts | 165° |
| 2026-04-25 00:49 | 61.17169 | -149.99519 | 162 ft | 5 kts | 176° |
| 2026-04-25 00:50 | 61.17139 | -149.99556 | 162 ft | 5 kts | 236° |
| 2026-04-25 00:50 | 61.17130 | -149.99605 | 162 ft | 0 kts | 259° |
| 2026-04-25 00:51 | 61.17129 | -149.99612 | 162 ft | 0 kts | 262° |
| 2026-04-25 00:52 | 61.17129 | -149.99617 | 162 ft | 1 kts | 263° |
| 2026-04-25 00:53 | 61.17124 | -149.99712 | 162 ft | 11 kts | 265° |
| 2026-04-25 00:53 | 61.17151 | -149.99860 | 162 ft | 10 kts | 320° |
| 2026-04-25 00:53 | 61.17174 | -149.99883 | 162 ft | 0 kts | 341° |
| 2026-04-25 00:53 | 61.17177 | -149.99886 | 162 ft | 0 kts | 342° |
| 2026-04-25 00:55 | 61.17199 | -149.99898 | 162 ft | 10 kts | 343° |
| 2026-04-25 00:55 | 61.17345 | -149.99986 | 162 ft | 35 kts | 345° |
| 2026-04-25 00:55 | 61.17800 | -150.00241 | 163 ft | 104 kts | 345° |
| 2026-04-25 00:56 | 61.18714 | -150.00748 | 163 ft | 166 kts | 344° |
| 2026-04-25 00:56 | 61.19964 | -150.01462 | 379 ft | 191 kts | 346° |
| 2026-04-25 00:56 | 61.21218 | -150.02158 | 1024 ft | 190 kts | 345° |
| 2026-04-25 00:56 | 61.22483 | -150.02956 | 1638 ft | 194 kts | 346° |
| 2026-04-25 00:57 | 61.23754 | -150.03803 | 2290 ft | 192 kts | 346° |
| 2026-04-25 00:57 | 61.25018 | -150.04686 | 2864 ft | 191 kts | 346° |
| 2026-04-25 00:57 | 61.26255 | -150.05612 | 3366 ft | 192 kts | 345° |
| 2026-04-25 00:57 | 61.27512 | -150.06613 | 3819 ft | 194 kts | 344° |
| 2026-04-25 00:58 | 61.28820 | -150.07280 | 4029 ft | 201 kts | 11° |
| 2026-04-25 00:58 | 61.30121 | -150.06328 | 4244 ft | 201 kts | 46° |
| 2026-04-25 00:58 | 61.30900 | -150.03929 | 4444 ft | 207 kts | 80° |
| 2026-04-25 00:58 | 61.30860 | -150.00917 | 4613 ft | 221 kts | 110° |
| 2026-04-25 00:59 | 61.29945 | -149.98277 | 4972 ft | 236 kts | 142° |
| 2026-04-25 00:59 | 61.28477 | -149.96541 | 5523 ft | 248 kts | 147° |
| 2026-04-25 00:59 | 61.27012 | -149.94678 | 6198 ft | 250 kts | 141° |
| 2026-04-25 00:59 | 61.25651 | -149.92503 | 6962 ft | 249 kts | 137° |
| 2026-04-25 01:00 | 61.24348 | -149.90129 | 7691 ft | 251 kts | 136° |
| 2026-04-25 01:00 | 61.23082 | -149.87685 | 8379 ft | 254 kts | 135° |
| 2026-04-25 01:00 | 61.21791 | -149.85113 | 9056 ft | 258 kts | 136° |
| 2026-04-25 01:00 | 61.20516 | -149.82533 | 9735 ft | 260 kts | 136° |
| 2026-04-25 01:01 | 61.19225 | -149.79907 | 10366 ft | 266 kts | 137° |
| 2026-04-25 01:01 | 61.17860 | -149.77130 | 10843 ft | 281 kts | 137° |
| 2026-04-25 01:01 | 61.16430 | -149.74210 | 11200 ft | 303 kts | 137° |
| 2026-04-25 01:01 | 61.14865 | -149.71017 | 11273 ft | 331 kts | 137° |
| 2026-04-25 01:02 | 61.13168 | -149.67534 | 11629 ft | 350 kts | 136° |
| 2026-04-25 01:02 | 61.11432 | -149.63959 | 12270 ft | 359 kts | 136° |
| 2026-04-25 01:02 | 61.09661 | -149.60301 | 13001 ft | 365 kts | 137° |
| 2026-04-25 01:02 | 61.07861 | -149.56595 | 13710 ft | 372 kts | 137° |
| 2026-04-25 01:03 | 61.06033 | -149.52832 | 14434 ft | 377 kts | 138° |
| 2026-04-25 01:03 | 61.04163 | -149.48982 | 15226 ft | 381 kts | 138° |
| 2026-04-25 01:03 | 61.02296 | -149.45140 | 15982 ft | 384 kts | 138° |
| 2026-04-25 01:03 | 61.00409 | -149.41243 | 16759 ft | 387 kts | 138° |
| 2026-04-25 01:04 | 60.98517 | -149.37335 | 17511 ft | 390 kts | 138° |
| 2026-04-25 01:04 | 60.96590 | -149.33368 | 18206 ft | 394 kts | 140° |
| 2026-04-25 01:04 | 60.94644 | -149.29350 | 18888 ft | 398 kts | 140° |
| 2026-04-25 01:04 | 60.92707 | -149.25349 | 19628 ft | 399 kts | 140° |
| 2026-04-25 01:05 | 60.90771 | -149.21336 | 20309 ft | 401 kts | 140° |
| 2026-04-25 01:05 | 60.88787 | -149.17233 | 20966 ft | 404 kts | 140° |
| 2026-04-25 01:05 | 60.86820 | -149.13155 | 21700 ft | 405 kts | 140° |
| 2026-04-25 01:05 | 60.84842 | -149.09058 | 22401 ft | 406 kts | 141° |
| 2026-04-25 01:06 | 60.82849 | -149.04933 | 23035 ft | 408 kts | 141° |
| 2026-04-25 01:06 | 60.80883 | -149.00848 | 23730 ft | 408 kts | 142° |
| 2026-04-25 01:06 | 60.78881 | -148.96698 | 24345 ft | 411 kts | 141° |
| 2026-04-25 01:06 | 60.76898 | -148.92580 | 24933 ft | 413 kts | 142° |
| 2026-04-25 01:07 | 60.74877 | -148.88396 | 25420 ft | 416 kts | 142° |
| 2026-04-25 01:07 | 60.72827 | -148.84103 | 25922 ft | 420 kts | 142° |
| 2026-04-25 01:07 | 60.70776 | -148.79868 | 26410 ft | 423 kts | 141° |
| 2026-04-25 01:07 | 60.68671 | -148.75542 | 26933 ft | 424 kts | 143° |
| 2026-04-25 01:08 | 60.66502 | -148.71344 | 27379 ft | 426 kts | 143° |
| 2026-04-25 01:08 | 60.64331 | -148.67203 | 27885 ft | 428 kts | 144° |
| 2026-04-25 01:08 | 60.62185 | -148.63094 | 28422 ft | 429 kts | 143° |
| 2026-04-25 01:08 | 60.60023 | -148.58896 | 29009 ft | 429 kts | 143° |
| 2026-04-25 01:09 | 60.57881 | -148.54736 | 29632 ft | 426 kts | 144° |
| 2026-04-25 01:09 | 60.55738 | -148.50578 | 30185 ft | 425 kts | 143° |
| 2026-04-25 01:09 | 60.53611 | -148.46454 | 30852 ft | 422 kts | 143° |
| 2026-04-25 01:09 | 60.51531 | -148.42392 | 31371 ft | 420 kts | 143° |
| 2026-04-25 01:10 | 60.49447 | -148.38321 | 31864 ft | 419 kts | 143° |
| 2026-04-25 01:10 | 60.47335 | -148.34203 | 32398 ft | 416 kts | 144° |
| 2026-04-25 01:10 | 60.45243 | -148.30138 | 32835 ft | 414 kts | 144° |
| 2026-04-25 01:10 | 60.43203 | -148.26173 | 33109 ft | 410 kts | 144° |
| 2026-04-25 01:11 | 60.41171 | -148.22198 | 33129 ft | 405 kts | 144° |
| 2026-04-25 01:11 | 60.37140 | -148.14317 | 33137 ft | 406 kts | 144° |
| 2026-04-25 01:12 | 60.33083 | -148.06381 | 33146 ft | 408 kts | 143° |
| 2026-04-25 01:12 | 60.29010 | -147.98408 | 33172 ft | 410 kts | 144° |
| 2026-04-25 01:13 | 60.24926 | -147.90398 | 33158 ft | 411 kts | 143° |
| 2026-04-25 01:13 | 60.20877 | -147.82449 | 33146 ft | 411 kts | 143° |
| 2026-04-25 01:14 | 60.16789 | -147.74420 | 33140 ft | 413 kts | 143° |
| 2026-04-25 01:14 | 60.12686 | -147.66344 | 33127 ft | 413 kts | 143° |
| 2026-04-25 01:15 | 60.08603 | -147.58398 | 33128 ft | 411 kts | 144° |
| 2026-04-25 01:15 | 60.04395 | -147.50737 | 33095 ft | 412 kts | 144° |
| 2026-04-25 01:16 | 60.00164 | -147.42987 | 33086 ft | 413 kts | 144° |
| 2026-04-25 01:16 | 59.95944 | -147.35217 | 33109 ft | 415 kts | 144° |
| 2026-04-25 01:17 | 59.91725 | -147.27429 | 33129 ft | 415 kts | 144° |
| 2026-04-25 01:17 | 59.87492 | -147.19601 | 33145 ft | 415 kts | 144° |
| 2026-04-25 01:18 | 59.83275 | -147.11809 | 33141 ft | 416 kts | 144° |
| 2026-04-25 01:18 | 59.79055 | -147.03995 | 33133 ft | 417 kts | 144° |
| 2026-04-25 01:19 | 59.74837 | -146.96182 | 33141 ft | 418 kts | 144° |
| 2026-04-25 01:19 | 59.70609 | -146.88327 | 33132 ft | 418 kts | 144° |
| 2026-04-25 01:20 | 59.66386 | -146.80489 | 33139 ft | 418 kts | 143° |
| 2026-04-25 01:20 | 59.62174 | -146.72647 | 33135 ft | 419 kts | 143° |
| 2026-04-25 01:21 | 59.57942 | -146.64777 | 33134 ft | 419 kts | 143° |
| 2026-04-25 01:21 | 59.53694 | -146.56853 | 33138 ft | 420 kts | 143° |
| 2026-04-25 01:22 | 59.49478 | -146.48987 | 33139 ft | 421 kts | 143° |
| 2026-04-25 01:22 | 59.45182 | -146.41194 | 33133 ft | 422 kts | 142° |
| 2026-04-25 01:23 | 59.41118 | -146.32677 | 33143 ft | 427 kts | 137° |
| 2026-04-25 01:23 | 59.37353 | -146.23723 | 33137 ft | 418 kts | 137° |
| 2026-04-25 01:24 | 59.33661 | -146.15067 | 33140 ft | 411 kts | 137° |
| 2026-04-25 01:24 | 59.29982 | -146.06537 | 33142 ft | 413 kts | 137° |
| 2026-04-25 01:25 | 59.26270 | -145.97939 | 33147 ft | 417 kts | 137° |
| 2026-04-25 01:25 | 59.22541 | -145.89298 | 33143 ft | 417 kts | 137° |
| 2026-04-25 01:26 | 59.18827 | -145.80669 | 33148 ft | 417 kts | 137° |
| 2026-04-25 01:26 | 59.15102 | -145.72000 | 33152 ft | 418 kts | 137° |
| 2026-04-25 01:27 | 59.11379 | -145.63336 | 33153 ft | 419 kts | 136° |
| 2026-04-25 01:27 | 59.07664 | -145.54677 | 33146 ft | 420 kts | 136° |
| 2026-04-25 01:28 | 59.02060 | -145.41573 | 33160 ft | 420 kts | 136° |
| 2026-04-25 01:28 | 58.98318 | -145.32808 | 33163 ft | 422 kts | 137° |
| 2026-04-25 01:29 | 58.94605 | -145.24109 | 33161 ft | 422 kts | 136° |
| 2026-04-25 01:29 | 58.90864 | -145.15312 | 33167 ft | 422 kts | 136° |
| 2026-04-25 01:30 | 58.87136 | -145.06549 | 33161 ft | 423 kts | 136° |
| 2026-04-25 01:30 | 58.83398 | -144.97911 | 33167 ft | 421 kts | 137° |
| 2026-04-25 01:31 | 58.79512 | -144.89504 | 33168 ft | 422 kts | 137° |
| 2026-04-25 01:31 | 58.75629 | -144.81032 | 33164 ft | 422 kts | 137° |
| 2026-04-25 01:32 | 58.71764 | -144.72527 | 33168 ft | 424 kts | 137° |
| 2026-04-25 01:32 | 58.67918 | -144.64059 | 33162 ft | 424 kts | 136° |
| 2026-04-25 01:33 | 58.64040 | -144.55516 | 33163 ft | 424 kts | 136° |
| 2026-04-25 01:33 | 58.60178 | -144.46992 | 33170 ft | 424 kts | 136° |
| 2026-04-25 01:34 | 58.56333 | -144.38492 | 33172 ft | 425 kts | 136° |
| 2026-04-25 01:34 | 58.54388 | -144.34199 | 33306 ft | 426 kts | 136° |
| 2026-04-25 01:34 | 58.52485 | -144.29974 | 33884 ft | 421 kts | 136° |
| 2026-04-25 01:35 | 58.50563 | -144.25711 | 34200 ft | 422 kts | 136° |
| 2026-04-25 01:35 | 58.48655 | -144.21483 | 34497 ft | 423 kts | 136° |
| 2026-04-25 01:35 | 58.46748 | -144.17252 | 34822 ft | 422 kts | 136° |
| 2026-04-25 01:35 | 58.44844 | -144.13028 | 35112 ft | 422 kts | 136° |
| 2026-04-25 01:36 | 58.41032 | -144.04553 | 35180 ft | 423 kts | 135° |
| 2026-04-25 01:36 | 58.37232 | -143.96088 | 35188 ft | 422 kts | 135° |
| 2026-04-25 01:37 | 58.33421 | -143.87585 | 35183 ft | 422 kts | 135° |
| 2026-04-25 01:37 | 58.29621 | -143.79160 | 35191 ft | 421 kts | 136° |
| 2026-04-25 01:38 | 58.25658 | -143.70976 | 35205 ft | 421 kts | 137° |
| 2026-04-25 01:38 | 58.21730 | -143.62833 | 35202 ft | 421 kts | 136° |
| 2026-04-25 01:39 | 58.17800 | -143.54627 | 35192 ft | 422 kts | 136° |
| 2026-04-25 01:39 | 58.13862 | -143.46393 | 35200 ft | 422 kts | 136° |
| 2026-04-25 01:40 | 58.09953 | -143.38207 | 35202 ft | 423 kts | 136° |
| 2026-04-25 01:40 | 58.06021 | -143.29965 | 35196 ft | 423 kts | 136° |
| 2026-04-25 01:41 | 58.02092 | -143.21712 | 35194 ft | 422 kts | 136° |
| 2026-04-25 01:41 | 57.98187 | -143.13504 | 35207 ft | 423 kts | 136° |
| 2026-04-25 01:42 | 57.94264 | -143.05237 | 35210 ft | 424 kts | 135° |
| 2026-04-25 01:42 | 57.90339 | -142.96962 | 35216 ft | 425 kts | 135° |
| 2026-04-25 01:43 | 57.86417 | -142.88684 | 35217 ft | 425 kts | 135° |
| 2026-04-25 01:43 | 57.82531 | -142.80466 | 35219 ft | 424 kts | 135° |
| 2026-04-25 01:44 | 57.78624 | -142.72197 | 35224 ft | 423 kts | 135° |
| 2026-04-25 01:44 | 57.74765 | -142.64017 | 35231 ft | 423 kts | 135° |
| 2026-04-25 01:45 | 57.70742 | -142.56032 | 35232 ft | 422 kts | 136° |
| 2026-04-25 01:45 | 57.66716 | -142.48099 | 35245 ft | 422 kts | 136° |
| 2026-04-25 01:46 | 57.62699 | -142.40123 | 35248 ft | 422 kts | 136° |
| 2026-04-25 01:46 | 57.58696 | -142.32155 | 35247 ft | 422 kts | 136° |
| 2026-04-25 01:47 | 57.54686 | -142.24167 | 35255 ft | 423 kts | 136° |
| 2026-04-25 01:47 | 57.50694 | -142.16199 | 35265 ft | 423 kts | 136° |
| 2026-04-25 01:48 | 57.46702 | -142.08225 | 35272 ft | 422 kts | 136° |
| 2026-04-25 01:48 | 57.42720 | -142.00259 | 35271 ft | 422 kts | 136° |
| 2026-04-25 01:49 | 57.38750 | -141.92307 | 35277 ft | 422 kts | 135° |
| 2026-04-25 01:49 | 57.34781 | -141.84348 | 35276 ft | 423 kts | 135° |
| 2026-04-25 01:50 | 57.30819 | -141.76395 | 35279 ft | 423 kts | 135° |
| 2026-04-25 01:50 | 57.26832 | -141.68381 | 35285 ft | 424 kts | 135° |
| 2026-04-25 01:51 | 57.22854 | -141.60376 | 35283 ft | 430 kts | 135° |
| 2026-04-25 01:51 | 57.18778 | -141.52159 | 35278 ft | 437 kts | 134° |
| 2026-04-25 01:52 | 57.14579 | -141.44102 | 35280 ft | 442 kts | 136° |
| 2026-04-25 01:52 | 57.10278 | -141.36038 | 35275 ft | 442 kts | 136° |
| 2026-04-25 01:53 | 57.06006 | -141.27957 | 35277 ft | 440 kts | 137° |
| 2026-04-25 01:53 | 57.01785 | -141.19948 | 35277 ft | 439 kts | 136° |
| 2026-04-25 01:54 | 56.97554 | -141.11912 | 35290 ft | 439 kts | 136° |
| 2026-04-25 01:54 | 56.93330 | -141.03880 | 35291 ft | 439 kts | 136° |
| 2026-04-25 01:55 | 56.89117 | -140.95859 | 35300 ft | 438 kts | 136° |
| 2026-04-25 01:55 | 56.84904 | -140.87831 | 35301 ft | 438 kts | 136° |
| 2026-04-25 01:56 | 56.80715 | -140.79833 | 35301 ft | 439 kts | 135° |
| 2026-04-25 01:56 | 56.76499 | -140.71776 | 35309 ft | 440 kts | 135° |
| 2026-04-25 01:57 | 56.70198 | -140.59721 | 35309 ft | 440 kts | 135° |
| 2026-04-25 01:58 | 56.65985 | -140.51643 | 35307 ft | 440 kts | 135° |
| 2026-04-25 01:58 | 56.61818 | -140.43646 | 35310 ft | 440 kts | 135° |
| 2026-04-25 01:59 | 56.57540 | -140.35721 | 35314 ft | 440 kts | 136° |
| 2026-04-25 01:59 | 56.53204 | -140.27969 | 35315 ft | 440 kts | 137° |
| 2026-04-25 02:00 | 56.48872 | -140.20157 | 35317 ft | 440 kts | 137° |
| 2026-04-25 02:00 | 56.44564 | -140.12358 | 35316 ft | 440 kts | 136° |
| 2026-04-25 02:01 | 56.40246 | -140.04529 | 35318 ft | 440 kts | 136° |
| 2026-04-25 02:01 | 56.35952 | -139.96736 | 35320 ft | 440 kts | 136° |
| 2026-04-25 02:02 | 56.31653 | -139.88928 | 35319 ft | 440 kts | 136° |
| 2026-04-25 02:02 | 56.27365 | -139.81131 | 35322 ft | 440 kts | 136° |
| 2026-04-25 02:03 | 56.23085 | -139.73343 | 35330 ft | 440 kts | 135° |
| 2026-04-25 02:03 | 56.18812 | -139.65555 | 35339 ft | 441 kts | 135° |
| 2026-04-25 02:04 | 56.14507 | -139.57697 | 35340 ft | 441 kts | 135° |
| 2026-04-25 02:04 | 56.10225 | -139.49870 | 35340 ft | 441 kts | 135° |
| 2026-04-25 02:05 | 56.05950 | -139.42056 | 35338 ft | 441 kts | 135° |
| 2026-04-25 02:05 | 56.01678 | -139.34239 | 35336 ft | 441 kts | 136° |
| 2026-04-25 02:06 | 55.97269 | -139.26639 | 35337 ft | 441 kts | 137° |
| 2026-04-25 02:06 | 55.92877 | -139.19107 | 35341 ft | 441 kts | 137° |
| 2026-04-25 02:07 | 55.88470 | -139.11491 | 35339 ft | 441 kts | 137° |
| 2026-04-25 02:07 | 55.84096 | -139.03923 | 35342 ft | 442 kts | 137° |
| 2026-04-25 02:08 | 55.79691 | -138.96291 | 35347 ft | 442 kts | 136° |
| 2026-04-25 02:08 | 55.75317 | -138.88704 | 35356 ft | 442 kts | 136° |
| 2026-04-25 02:09 | 55.70938 | -138.81102 | 35357 ft | 443 kts | 136° |
| 2026-04-25 02:09 | 55.66543 | -138.73463 | 35359 ft | 442 kts | 136° |
| 2026-04-25 02:10 | 55.62175 | -138.65865 | 35359 ft | 442 kts | 136° |
| 2026-04-25 02:10 | 55.57811 | -138.58264 | 35362 ft | 442 kts | 135° |
| 2026-04-25 02:11 | 55.53462 | -138.50681 | 35362 ft | 441 kts | 135° |
| 2026-04-25 02:11 | 55.49097 | -138.43062 | 35362 ft | 442 kts | 135° |
| 2026-04-25 02:12 | 55.44741 | -138.35451 | 35362 ft | 443 kts | 135° |
| 2026-04-25 02:12 | 55.40363 | -138.27936 | 35367 ft | 442 kts | 137° |
| 2026-04-25 02:13 | 55.35874 | -138.20599 | 35369 ft | 441 kts | 137° |
| 2026-04-25 02:13 | 55.31411 | -138.13248 | 35369 ft | 442 kts | 137° |
| 2026-04-25 02:14 | 55.26968 | -138.05893 | 35367 ft | 442 kts | 137° |
| 2026-04-25 02:14 | 55.22509 | -137.98505 | 35371 ft | 442 kts | 136° |
| 2026-04-25 02:15 | 55.18071 | -137.91147 | 35372 ft | 442 kts | 136° |
| 2026-04-25 02:15 | 55.13626 | -137.83769 | 35377 ft | 442 kts | 136° |
| 2026-04-25 02:16 | 55.09182 | -137.76387 | 35377 ft | 442 kts | 136° |
| 2026-04-25 02:16 | 55.04744 | -137.69006 | 35378 ft | 442 kts | 136° |
| 2026-04-25 02:17 | 55.00327 | -137.61653 | 35383 ft | 442 kts | 136° |
| 2026-04-25 02:17 | 54.95903 | -137.54285 | 35381 ft | 442 kts | 136° |
| 2026-04-25 02:18 | 54.91475 | -137.46893 | 35376 ft | 443 kts | 136° |
| 2026-04-25 02:18 | 54.87044 | -137.39494 | 35377 ft | 443 kts | 136° |
| 2026-04-25 02:19 | 54.82628 | -137.32117 | 35379 ft | 443 kts | 136° |
| 2026-04-25 02:19 | 54.78094 | -137.24872 | 35381 ft | 444 kts | 138° |
| 2026-04-25 02:20 | 54.73546 | -137.17729 | 35383 ft | 443 kts | 137° |
| 2026-04-25 02:20 | 54.69025 | -137.10576 | 35387 ft | 443 kts | 137° |
| 2026-04-25 02:21 | 54.64497 | -137.03394 | 35384 ft | 443 kts | 137° |
| 2026-04-25 02:21 | 54.59979 | -136.96220 | 35380 ft | 444 kts | 137° |
| 2026-04-25 02:22 | 54.55436 | -136.89004 | 35384 ft | 445 kts | 137° |
| 2026-04-25 02:22 | 54.50901 | -136.81793 | 35376 ft | 444 kts | 137° |
| 2026-04-25 02:23 | 54.46404 | -136.74635 | 35378 ft | 444 kts | 136° |
| 2026-04-25 02:23 | 54.41887 | -136.67441 | 35377 ft | 444 kts | 136° |
| 2026-04-25 02:24 | 54.37363 | -136.60225 | 35380 ft | 444 kts | 136° |
| 2026-04-25 02:24 | 54.32869 | -136.53050 | 35381 ft | 444 kts | 136° |
| 2026-04-25 02:25 | 54.28369 | -136.45862 | 35376 ft | 445 kts | 136° |
| 2026-04-25 02:25 | 54.23873 | -136.38673 | 35381 ft | 445 kts | 136° |
| 2026-04-25 02:26 | 54.19344 | -136.31477 | 35377 ft | 445 kts | 137° |
| 2026-04-25 02:26 | 54.14752 | -136.24426 | 35382 ft | 444 kts | 137° |
| 2026-04-25 02:27 | 54.10212 | -136.17410 | 35381 ft | 443 kts | 137° |
| 2026-04-25 02:27 | 54.05653 | -136.10345 | 35384 ft | 443 kts | 137° |
| 2026-04-25 02:28 | 54.01186 | -136.03133 | 35380 ft | 443 kts | 133° |
| 2026-04-25 02:28 | 53.96649 | -135.96115 | 35391 ft | 445 kts | 142° |
| 2026-04-25 02:29 | 53.91597 | -135.90048 | 35338 ft | 445 kts | 143° |
| 2026-04-25 02:29 | 53.86528 | -135.84079 | 35381 ft | 447 kts | 143° |
| 2026-04-25 02:30 | 53.81434 | -135.78095 | 35381 ft | 447 kts | 143° |
| 2026-04-25 02:30 | 53.76358 | -135.72133 | 35384 ft | 447 kts | 143° |
| 2026-04-25 02:31 | 53.71245 | -135.66127 | 35382 ft | 448 kts | 143° |
| 2026-04-25 02:31 | 53.66177 | -135.60169 | 35384 ft | 447 kts | 143° |
| 2026-04-25 02:32 | 53.61079 | -135.54167 | 35384 ft | 448 kts | 143° |
| 2026-04-25 02:32 | 53.56005 | -135.48193 | 35371 ft | 448 kts | 143° |
| 2026-04-25 02:33 | 53.50912 | -135.42197 | 35373 ft | 448 kts | 143° |
| 2026-04-25 02:33 | 53.45837 | -135.36215 | 35372 ft | 448 kts | 143° |
| 2026-04-25 02:34 | 53.40734 | -135.30202 | 35375 ft | 449 kts | 143° |
| 2026-04-25 02:34 | 53.35655 | -135.24205 | 35372 ft | 449 kts | 143° |
| 2026-04-25 02:35 | 53.30586 | -135.18219 | 35364 ft | 449 kts | 143° |
| 2026-04-25 02:35 | 53.25478 | -135.12209 | 35359 ft | 450 kts | 144° |
| 2026-04-25 02:36 | 53.20312 | -135.06337 | 35355 ft | 451 kts | 144° |
| 2026-04-25 02:36 | 53.15142 | -135.00436 | 35356 ft | 451 kts | 144° |
| 2026-04-25 02:37 | 53.10002 | -134.94550 | 35359 ft | 450 kts | 144° |
| 2026-04-25 02:37 | 53.04871 | -134.88673 | 35358 ft | 450 kts | 143° |
| 2026-04-25 02:38 | 52.99731 | -134.82779 | 35355 ft | 451 kts | 144° |
| 2026-04-25 02:38 | 52.94517 | -134.77005 | 35354 ft | 452 kts | 144° |
| 2026-04-25 02:39 | 52.89296 | -134.71230 | 35353 ft | 452 kts | 144° |
| 2026-04-25 02:39 | 52.85156 | -134.66626 | 35348 ft | 452 kts | 144° |
| 2026-04-25 02:40 | 52.80342 | -134.61273 | 35357 ft | 451 kts | 144° |
| 2026-04-25 02:40 | 52.75148 | -134.55498 | 35364 ft | 451 kts | 143° |
| 2026-04-25 02:41 | 52.69968 | -134.49730 | 35363 ft | 451 kts | 143° |
| 2026-04-25 02:41 | 52.64778 | -134.43950 | 35365 ft | 452 kts | 143° |
| 2026-04-25 02:42 | 52.59573 | -134.38152 | 35367 ft | 452 kts | 143° |
| 2026-04-25 02:42 | 52.54371 | -134.32356 | 35350 ft | 452 kts | 144° |
| 2026-04-25 02:43 | 52.49181 | -134.26567 | 35349 ft | 453 kts | 144° |
| 2026-04-25 02:43 | 52.44010 | -134.20796 | 35334 ft | 452 kts | 143° |
| 2026-04-25 02:44 | 52.38816 | -134.14996 | 35333 ft | 452 kts | 143° |
| 2026-04-25 02:44 | 52.33640 | -134.09213 | 35339 ft | 453 kts | 143° |
| 2026-04-25 02:45 | 52.28422 | -134.03462 | 35348 ft | 454 kts | 144° |
| 2026-04-25 02:45 | 52.23136 | -133.97778 | 35350 ft | 454 kts | 144° |
| 2026-04-25 02:46 | 52.17907 | -133.92125 | 35336 ft | 453 kts | 144° |
| 2026-04-25 02:46 | 52.12683 | -133.86465 | 35334 ft | 454 kts | 143° |
| 2026-04-25 02:47 | 52.07444 | -133.80786 | 35327 ft | 455 kts | 143° |
| 2026-04-25 02:47 | 52.02200 | -133.75098 | 35332 ft | 455 kts | 143° |
| 2026-04-25 02:48 | 51.96923 | -133.69461 | 35331 ft | 456 kts | 144° |
| 2026-04-25 02:48 | 51.91640 | -133.63943 | 35331 ft | 455 kts | 144° |
| 2026-04-25 02:49 | 51.86335 | -133.58363 | 35321 ft | 455 kts | 144° |
| 2026-04-25 02:49 | 51.81072 | -133.52824 | 35322 ft | 455 kts | 144° |
| 2026-04-25 02:50 | 51.75778 | -133.47250 | 35316 ft | 455 kts | 144° |
| 2026-04-25 02:50 | 51.70484 | -133.41673 | 35309 ft | 457 kts | 143° |
| 2026-04-25 02:51 | 51.65183 | -133.36084 | 35307 ft | 458 kts | 143° |
| 2026-04-25 02:51 | 51.59877 | -133.30489 | 35304 ft | 458 kts | 144° |
| 2026-04-25 02:52 | 51.54542 | -133.24860 | 35300 ft | 458 kts | 144° |
| 2026-04-25 02:52 | 51.49263 | -133.19289 | 35296 ft | 458 kts | 144° |
| 2026-04-25 02:53 | 51.43951 | -133.13678 | 35291 ft | 457 kts | 144° |
| 2026-04-25 02:53 | 51.38648 | -133.08072 | 35290 ft | 458 kts | 144° |
| 2026-04-25 02:54 | 51.33365 | -133.02489 | 35282 ft | 459 kts | 143° |
| 2026-04-25 02:54 | 51.28034 | -132.96904 | 35282 ft | 461 kts | 144° |
| 2026-04-25 02:55 | 51.22621 | -132.91391 | 35284 ft | 461 kts | 144° |
| 2026-04-25 02:55 | 51.17266 | -132.85899 | 35291 ft | 460 kts | 144° |
| 2026-04-25 02:56 | 51.11917 | -132.80403 | 35287 ft | 460 kts | 144° |
| 2026-04-25 02:56 | 51.06525 | -132.74866 | 35291 ft | 461 kts | 144° |
| 2026-04-25 02:57 | 51.01170 | -132.69362 | 35287 ft | 462 kts | 144° |
| 2026-04-25 02:57 | 50.95743 | -132.63915 | 35292 ft | 463 kts | 145° |
| 2026-04-25 02:58 | 50.90283 | -132.58505 | 35282 ft | 463 kts | 144° |
| 2026-04-25 02:58 | 50.84871 | -132.53113 | 35285 ft | 463 kts | 144° |
| 2026-04-25 02:59 | 50.79432 | -132.47688 | 35275 ft | 463 kts | 144° |
| 2026-04-25 02:59 | 50.74009 | -132.42279 | 35275 ft | 463 kts | 144° |
| 2026-04-25 03:00 | 50.68587 | -132.36873 | 35268 ft | 463 kts | 144° |
| 2026-04-25 03:00 | 50.63124 | -132.31422 | 35277 ft | 464 kts | 145° |
| 2026-04-25 03:01 | 50.57695 | -132.26000 | 35270 ft | 465 kts | 145° |
| 2026-04-25 03:01 | 50.52245 | -132.20557 | 35270 ft | 466 kts | 145° |
| 2026-04-25 03:02 | 50.46789 | -132.15102 | 35264 ft | 466 kts | 145° |
| 2026-04-25 03:02 | 50.41360 | -132.09671 | 35259 ft | 466 kts | 145° |
| 2026-04-25 03:03 | 50.35905 | -132.04217 | 35266 ft | 466 kts | 145° |
| 2026-04-25 03:03 | 50.30483 | -131.98791 | 35266 ft | 466 kts | 145° |
| 2026-04-25 03:04 | 50.25008 | -131.93417 | 35272 ft | 467 kts | 146° |
| 2026-04-25 03:04 | 50.19520 | -131.88071 | 35269 ft | 467 kts | 145° |
| 2026-04-25 03:05 | 50.11064 | -131.80463 | 35264 ft | 469 kts | 148° |
| 2026-04-25 03:05 | 50.05434 | -131.75427 | 35264 ft | 469 kts | 147° |
| 2026-04-25 03:06 | 49.99813 | -131.70367 | 35265 ft | 469 kts | 147° |
| 2026-04-25 03:06 | 49.94118 | -131.65424 | 35257 ft | 470 kts | 148° |
| 2026-04-25 03:07 | 49.88431 | -131.60503 | 35248 ft | 470 kts | 148° |
| 2026-04-25 03:07 | 49.82734 | -131.55550 | 35239 ft | 469 kts | 147° |
| 2026-04-25 03:08 | 49.77065 | -131.50615 | 35234 ft | 471 kts | 147° |
| 2026-04-25 03:08 | 49.71373 | -131.45662 | 35229 ft | 472 kts | 147° |
| 2026-04-25 03:09 | 49.65672 | -131.40698 | 35232 ft | 472 kts | 147° |
| 2026-04-25 03:09 | 49.59959 | -131.35727 | 35222 ft | 473 kts | 147° |
| 2026-04-25 03:10 | 49.54250 | -131.30756 | 35222 ft | 474 kts | 148° |
| 2026-04-25 03:10 | 49.48553 | -131.25790 | 35225 ft | 474 kts | 148° |
| 2026-04-25 03:11 | 49.42800 | -131.20776 | 35220 ft | 475 kts | 148° |
| 2026-04-25 03:11 | 49.37074 | -131.15785 | 35222 ft | 475 kts | 148° |
| 2026-04-25 03:12 | 49.31348 | -131.10788 | 35219 ft | 476 kts | 148° |
| 2026-04-25 03:12 | 49.25597 | -131.05798 | 35216 ft | 477 kts | 148° |
| 2026-04-25 03:13 | 49.19788 | -131.00897 | 35209 ft | 478 kts | 148° |
| 2026-04-25 03:13 | 49.13978 | -130.95972 | 35212 ft | 479 kts | 148° |
| 2026-04-25 03:14 | 49.08182 | -130.91048 | 35215 ft | 479 kts | 148° |
| 2026-04-25 03:14 | 49.02388 | -130.86124 | 35231 ft | 480 kts | 148° |
| 2026-04-25 03:15 | 48.96579 | -130.81184 | 35225 ft | 480 kts | 148° |
| 2026-04-25 03:15 | 48.90692 | -130.76274 | 35215 ft | 480 kts | 149° |
| 2026-04-25 03:16 | 48.84837 | -130.71452 | 35213 ft | 480 kts | 149° |
| 2026-04-25 03:16 | 48.79003 | -130.66626 | 35201 ft | 481 kts | 148° |
| 2026-04-25 03:17 | 48.73129 | -130.61760 | 35195 ft | 481 kts | 148° |
| 2026-04-25 03:17 | 48.67298 | -130.56929 | 35201 ft | 481 kts | 148° |
| 2026-04-25 03:18 | 48.61806 | -130.52380 | 35196 ft | 481 kts | 148° |
| 2026-04-25 03:18 | 48.55970 | -130.47545 | 35188 ft | 481 kts | 148° |
| 2026-04-25 03:19 | 48.50119 | -130.42694 | 35186 ft | 482 kts | 148° |
| 2026-04-25 03:19 | 48.44252 | -130.37828 | 35182 ft | 483 kts | 148° |
| 2026-04-25 03:20 | 48.38356 | -130.32939 | 35180 ft | 484 kts | 149° |
| 2026-04-25 03:20 | 48.32481 | -130.28061 | 35178 ft | 484 kts | 149° |
| 2026-04-25 03:21 | 48.26571 | -130.23155 | 35176 ft | 485 kts | 149° |
| 2026-04-25 03:21 | 48.20677 | -130.18278 | 35170 ft | 485 kts | 149° |
| 2026-04-25 03:22 | 48.14725 | -130.13524 | 35173 ft | 487 kts | 149° |
| 2026-04-25 03:22 | 48.08775 | -130.08748 | 35173 ft | 489 kts | 149° |
| 2026-04-25 03:23 | 48.02779 | -130.03922 | 35167 ft | 489 kts | 149° |
| 2026-04-25 03:23 | 47.96810 | -129.99114 | 35167 ft | 488 kts | 149° |
| 2026-04-25 03:24 | 47.90848 | -129.94312 | 35169 ft | 489 kts | 149° |
| 2026-04-25 03:24 | 47.84855 | -129.89484 | 35174 ft | 489 kts | 149° |
| 2026-04-25 03:25 | 47.78875 | -129.84668 | 35167 ft | 490 kts | 149° |
| 2026-04-25 03:25 | 47.72891 | -129.79863 | 35163 ft | 490 kts | 149° |
| 2026-04-25 03:26 | 47.66886 | -129.75053 | 35156 ft | 491 kts | 149° |
| 2026-04-25 03:26 | 47.60899 | -129.70244 | 35157 ft | 491 kts | 149° |
| 2026-04-25 03:27 | 47.54951 | -129.65466 | 35157 ft | 491 kts | 149° |
| 2026-04-25 03:27 | 47.48938 | -129.60628 | 35155 ft | 490 kts | 149° |
| 2026-04-25 03:28 | 47.42994 | -129.55849 | 35153 ft | 490 kts | 149° |
| 2026-04-25 03:28 | 47.36995 | -129.51021 | 35147 ft | 490 kts | 149° |
| 2026-04-25 03:29 | 47.31031 | -129.46223 | 35143 ft | 491 kts | 149° |
| 2026-04-25 03:29 | 47.25020 | -129.41386 | 35128 ft | 491 kts | 149° |
| 2026-04-25 03:30 | 47.19016 | -129.36549 | 35140 ft | 492 kts | 148° |
| 2026-04-25 03:30 | 47.13034 | -129.31734 | 35138 ft | 493 kts | 149° |
| 2026-04-25 03:31 | 47.07004 | -129.26891 | 35130 ft | 494 kts | 149° |
| 2026-04-25 03:31 | 47.00995 | -129.22096 | 35112 ft | 494 kts | 149° |
| 2026-04-25 03:32 | 46.94972 | -129.17281 | 35119 ft | 494 kts | 149° |
| 2026-04-25 03:32 | 46.88937 | -129.12425 | 35114 ft | 494 kts | 149° |
| 2026-04-25 03:33 | 46.82934 | -129.07593 | 35107 ft | 496 kts | 149° |
| 2026-04-25 03:33 | 46.76904 | -129.02743 | 35114 ft | 496 kts | 149° |
| 2026-04-25 03:34 | 46.70872 | -128.97888 | 35113 ft | 496 kts | 149° |
| 2026-04-25 03:34 | 46.64867 | -128.93043 | 35113 ft | 496 kts | 149° |
| 2026-04-25 03:35 | 46.58820 | -128.88182 | 35105 ft | 496 kts | 149° |
| 2026-04-25 03:35 | 46.52795 | -128.83354 | 35103 ft | 496 kts | 149° |
| 2026-04-25 03:36 | 46.46777 | -128.78531 | 35108 ft | 496 kts | 149° |
| 2026-04-25 03:36 | 46.40774 | -128.73704 | 35107 ft | 496 kts | 148° |
| 2026-04-25 03:37 | 46.34745 | -128.68848 | 35105 ft | 497 kts | 148° |
| 2026-04-25 03:37 | 46.28719 | -128.63983 | 35106 ft | 497 kts | 148° |
| 2026-04-25 03:38 | 46.22694 | -128.59129 | 35104 ft | 497 kts | 148° |
| 2026-04-25 03:38 | 46.16688 | -128.54303 | 35101 ft | 497 kts | 148° |
| 2026-04-25 03:39 | 46.10665 | -128.49466 | 35097 ft | 498 kts | 148° |
| 2026-04-25 03:39 | 46.04598 | -128.44600 | 35098 ft | 498 kts | 148° |
| 2026-04-25 03:40 | 45.98587 | -128.39777 | 35096 ft | 499 kts | 148° |
| 2026-04-25 03:40 | 45.92543 | -128.34904 | 35091 ft | 499 kts | 149° |
| 2026-04-25 03:41 | 45.86499 | -128.30020 | 35090 ft | 499 kts | 149° |
| 2026-04-25 03:41 | 45.80427 | -128.25110 | 35088 ft | 501 kts | 149° |
| 2026-04-25 03:42 | 45.74389 | -128.20235 | 35089 ft | 500 kts | 149° |
| 2026-04-25 03:42 | 45.68338 | -128.15346 | 35087 ft | 499 kts | 149° |
| 2026-04-25 03:43 | 45.62327 | -128.10492 | 35092 ft | 499 kts | 149° |
| 2026-04-25 03:43 | 45.56289 | -128.05609 | 35090 ft | 500 kts | 149° |
| 2026-04-25 03:44 | 45.50250 | -128.00719 | 35084 ft | 501 kts | 148° |
| 2026-04-25 03:44 | 45.44212 | -127.95828 | 35078 ft | 502 kts | 148° |
| 2026-04-25 03:45 | 45.38131 | -127.90900 | 35079 ft | 501 kts | 148° |
| 2026-04-25 03:45 | 45.32099 | -127.86024 | 35086 ft | 500 kts | 148° |
| 2026-04-25 03:46 | 45.26070 | -127.81145 | 35088 ft | 500 kts | 148° |
| 2026-04-25 03:46 | 45.20041 | -127.76260 | 35088 ft | 501 kts | 148° |
| 2026-04-25 03:47 | 45.13990 | -127.71349 | 35086 ft | 501 kts | 148° |
| 2026-04-25 03:47 | 45.07965 | -127.66454 | 35083 ft | 501 kts | 148° |
| 2026-04-25 03:48 | 45.01947 | -127.61568 | 35084 ft | 500 kts | 148° |
| 2026-04-25 03:48 | 44.95924 | -127.56692 | 35085 ft | 500 kts | 148° |
| 2026-04-25 03:49 | 44.89896 | -127.51810 | 35078 ft | 500 kts | 148° |
| 2026-04-25 03:49 | 44.83876 | -127.46918 | 35073 ft | 500 kts | 148° |
| 2026-04-25 03:50 | 44.77869 | -127.42027 | 35069 ft | 500 kts | 148° |
| 2026-04-25 03:50 | 44.71864 | -127.37136 | 35068 ft | 500 kts | 148° |
| 2026-04-25 03:51 | 44.65883 | -127.32256 | 35070 ft | 500 kts | 149° |
| 2026-04-25 03:51 | 44.59858 | -127.27328 | 35062 ft | 500 kts | 148° |
| 2026-04-25 03:52 | 44.53882 | -127.22447 | 35060 ft | 500 kts | 148° |
| 2026-04-25 03:52 | 44.47873 | -127.17551 | 35046 ft | 500 kts | 148° |
| 2026-04-25 03:53 | 44.41877 | -127.12664 | 35044 ft | 500 kts | 148° |
| 2026-04-25 03:53 | 44.35874 | -127.07757 | 35041 ft | 499 kts | 148° |
| 2026-04-25 03:54 | 44.29900 | -127.02864 | 35038 ft | 498 kts | 148° |
| 2026-04-25 03:54 | 44.23931 | -126.97964 | 35033 ft | 498 kts | 148° |
| 2026-04-25 03:55 | 44.17977 | -126.93072 | 35034 ft | 498 kts | 148° |
| 2026-04-25 03:55 | 44.12027 | -126.88178 | 35036 ft | 498 kts | 148° |
| 2026-04-25 03:56 | 44.06082 | -126.83285 | 35026 ft | 498 kts | 148° |
| 2026-04-25 03:56 | 44.00145 | -126.78395 | 35028 ft | 498 kts | 148° |
| 2026-04-25 03:57 | 43.94200 | -126.73492 | 35026 ft | 498 kts | 148° |
| 2026-04-25 03:57 | 43.88243 | -126.68574 | 35015 ft | 498 kts | 148° |
| 2026-04-25 03:58 | 43.82330 | -126.63700 | 35015 ft | 498 kts | 148° |
| 2026-04-25 03:58 | 43.76391 | -126.58813 | 35012 ft | 498 kts | 148° |
| 2026-04-25 03:59 | 43.70461 | -126.53941 | 35016 ft | 498 kts | 148° |
| 2026-04-25 03:59 | 43.64492 | -126.49036 | 35019 ft | 497 kts | 148° |
| 2026-04-25 04:00 | 43.58560 | -126.44164 | 35010 ft | 497 kts | 148° |
| 2026-04-25 04:00 | 43.52624 | -126.39281 | 35006 ft | 497 kts | 148° |
| 2026-04-25 04:01 | 43.46721 | -126.34428 | 35006 ft | 497 kts | 148° |
| 2026-04-25 04:01 | 43.40721 | -126.29505 | 35003 ft | 496 kts | 148° |
| 2026-04-25 04:02 | 43.34832 | -126.24676 | 34999 ft | 496 kts | 148° |
| 2026-04-25 04:02 | 43.28914 | -126.19825 | 34995 ft | 496 kts | 148° |
| 2026-04-25 04:03 | 43.23008 | -126.14978 | 34992 ft | 496 kts | 148° |
| 2026-04-25 04:03 | 43.17094 | -126.10110 | 34991 ft | 495 kts | 148° |
| 2026-04-25 04:04 | 43.11203 | -126.05259 | 34987 ft | 496 kts | 148° |
| 2026-04-25 04:04 | 43.05279 | -126.00379 | 34984 ft | 496 kts | 148° |
| 2026-04-25 04:05 | 42.99302 | -125.95731 | 34970 ft | 496 kts | 156° |
| 2026-04-25 04:05 | 42.92680 | -125.93292 | 34978 ft | 497 kts | 175° |
| 2026-04-25 04:06 | 42.85819 | -125.93785 | 34980 ft | 495 kts | 194° |
| 2026-04-25 04:06 | 42.79401 | -125.97015 | 34978 ft | 492 kts | 204° |
| 2026-04-25 04:07 | 42.72780 | -125.99269 | 34973 ft | 496 kts | 185° |
| 2026-04-25 04:07 | 42.65895 | -125.98579 | 34972 ft | 496 kts | 165° |
| 2026-04-25 04:08 | 42.59594 | -125.95080 | 34974 ft | 494 kts | 147° |
| 2026-04-25 04:08 | 42.54384 | -125.89082 | 34970 ft | 488 kts | 128° |
| 2026-04-25 04:09 | 42.49871 | -125.82272 | 34968 ft | 489 kts | 138° |
| 2026-04-25 04:09 | 42.44325 | -125.76998 | 34959 ft | 491 kts | 146° |
| 2026-04-25 04:10 | 42.38601 | -125.72003 | 34958 ft | 489 kts | 145° |
| 2026-04-25 04:10 | 42.32913 | -125.66992 | 34955 ft | 488 kts | 145° |
| 2026-04-25 04:11 | 42.24388 | -125.59458 | 34947 ft | 487 kts | 145° |
| 2026-04-25 04:12 | 42.18719 | -125.54449 | 34943 ft | 487 kts | 145° |
| 2026-04-25 04:12 | 42.13102 | -125.49481 | 34944 ft | 486 kts | 145° |
| 2026-04-25 04:13 | 42.07433 | -125.44469 | 34947 ft | 486 kts | 145° |
| 2026-04-25 04:13 | 42.01790 | -125.39475 | 34946 ft | 486 kts | 145° |
| 2026-04-25 04:14 | 41.96156 | -125.34491 | 34938 ft | 485 kts | 146° |
| 2026-04-25 04:14 | 41.90505 | -125.29487 | 34938 ft | 485 kts | 146° |
| 2026-04-25 04:15 | 41.84879 | -125.24503 | 34926 ft | 484 kts | 146° |
| 2026-04-25 04:15 | 41.79273 | -125.19536 | 34938 ft | 483 kts | 146° |
| 2026-04-25 04:16 | 41.73654 | -125.14656 | 34941 ft | 482 kts | 147° |
| 2026-04-25 04:16 | 41.68022 | -125.09840 | 34940 ft | 482 kts | 146° |
| 2026-04-25 04:17 | 41.62358 | -125.04968 | 34932 ft | 481 kts | 146° |
| 2026-04-25 04:17 | 41.56759 | -125.00149 | 34925 ft | 481 kts | 146° |
| 2026-04-25 04:18 | 41.51126 | -124.95301 | 34941 ft | 481 kts | 146° |
| 2026-04-25 04:18 | 41.45517 | -124.90473 | 34936 ft | 480 kts | 146° |
| 2026-04-25 04:19 | 41.39905 | -124.85639 | 34942 ft | 480 kts | 146° |
| 2026-04-25 04:19 | 41.34306 | -124.80814 | 34941 ft | 480 kts | 146° |
| 2026-04-25 04:20 | 41.28717 | -124.75996 | 34944 ft | 481 kts | 146° |
| 2026-04-25 04:20 | 41.23106 | -124.71159 | 34934 ft | 481 kts | 146° |
| 2026-04-25 04:21 | 41.17490 | -124.66316 | 34929 ft | 480 kts | 146° |
| 2026-04-25 04:21 | 41.11909 | -124.61500 | 34933 ft | 480 kts | 146° |
| 2026-04-25 04:22 | 41.06322 | -124.56691 | 34949 ft | 480 kts | 147° |
| 2026-04-25 04:22 | 41.00669 | -124.51943 | 34937 ft | 481 kts | 148° |
| 2026-04-25 04:23 | 40.95024 | -124.47189 | 34938 ft | 482 kts | 147° |
| 2026-04-25 04:23 | 40.89381 | -124.42419 | 34944 ft | 483 kts | 147° |
| 2026-04-25 04:24 | 40.83711 | -124.37628 | 34944 ft | 484 kts | 148° |
| 2026-04-25 04:24 | 40.78023 | -124.32818 | 34933 ft | 484 kts | 149° |
| 2026-04-25 04:25 | 40.72358 | -124.28035 | 34941 ft | 485 kts | 149° |
| 2026-04-25 04:25 | 40.66630 | -124.23352 | 34947 ft | 485 kts | 152° |
| 2026-04-25 04:26 | 40.60611 | -124.19455 | 34943 ft | 485 kts | 158° |
| 2026-04-25 04:26 | 40.54471 | -124.15814 | 34943 ft | 484 kts | 158° |
| 2026-04-25 04:27 | 40.48344 | -124.12162 | 34948 ft | 482 kts | 158° |
| 2026-04-25 04:27 | 40.42229 | -124.08494 | 34936 ft | 481 kts | 158° |
| 2026-04-25 04:28 | 40.36161 | -124.04852 | 34934 ft | 481 kts | 158° |
| 2026-04-25 04:28 | 40.30108 | -124.01229 | 34922 ft | 482 kts | 158° |
| 2026-04-25 04:29 | 40.24010 | -123.97567 | 34913 ft | 482 kts | 159° |
| 2026-04-25 04:29 | 40.17938 | -123.93931 | 34922 ft | 481 kts | 159° |
| 2026-04-25 04:30 | 40.11868 | -123.90288 | 34908 ft | 481 kts | 159° |
| 2026-04-25 04:30 | 40.05789 | -123.86639 | 34920 ft | 480 kts | 159° |
| 2026-04-25 04:31 | 39.99712 | -123.82996 | 34919 ft | 480 kts | 159° |
| 2026-04-25 04:31 | 39.93657 | -123.79365 | 34918 ft | 480 kts | 159° |
| 2026-04-25 04:32 | 39.87615 | -123.75748 | 34918 ft | 480 kts | 159° |
| 2026-04-25 04:32 | 39.81629 | -123.72170 | 34908 ft | 480 kts | 159° |
| 2026-04-25 04:33 | 39.75572 | -123.68658 | 34912 ft | 479 kts | 160° |
| 2026-04-25 04:33 | 39.69469 | -123.65112 | 34922 ft | 479 kts | 159° |
| 2026-04-25 04:34 | 39.63435 | -123.61581 | 34925 ft | 479 kts | 159° |
| 2026-04-25 04:34 | 39.57333 | -123.58010 | 34919 ft | 479 kts | 159° |
| 2026-04-25 04:35 | 39.51270 | -123.54462 | 34921 ft | 480 kts | 159° |
| 2026-04-25 04:35 | 39.45168 | -123.50893 | 34915 ft | 481 kts | 159° |
| 2026-04-25 04:36 | 39.39112 | -123.47347 | 34923 ft | 481 kts | 159° |
| 2026-04-25 04:36 | 39.33014 | -123.43778 | 34910 ft | 481 kts | 159° |
| 2026-04-25 04:37 | 39.26943 | -123.40223 | 34916 ft | 480 kts | 159° |
| 2026-04-25 04:37 | 39.20868 | -123.36666 | 34917 ft | 480 kts | 159° |
| 2026-04-25 04:38 | 39.14771 | -123.33096 | 34909 ft | 480 kts | 160° |
| 2026-04-25 04:38 | 39.08949 | -123.29667 | 34909 ft | 481 kts | 158° |
| 2026-04-25 04:39 | 39.03122 | -123.25314 | 34917 ft | 487 kts | 148° |
| 2026-04-25 04:39 | 38.97715 | -123.20036 | 34921 ft | 490 kts | 146° |
| 2026-04-25 04:40 | 38.92290 | -123.14690 | 34924 ft | 490 kts | 146° |
| 2026-04-25 04:40 | 38.86911 | -123.09426 | 34920 ft | 489 kts | 147° |
| 2026-04-25 04:41 | 38.81648 | -123.04285 | 34924 ft | 489 kts | 147° |
| 2026-04-25 04:41 | 38.76233 | -122.99000 | 34925 ft | 491 kts | 147° |
| 2026-04-25 04:42 | 38.70768 | -122.93667 | 34915 ft | 491 kts | 147° |
| 2026-04-25 04:42 | 38.65336 | -122.88357 | 34920 ft | 492 kts | 147° |
| 2026-04-25 04:43 | 38.59917 | -122.83059 | 34925 ft | 493 kts | 147° |
| 2026-04-25 04:43 | 38.54460 | -122.77721 | 34926 ft | 495 kts | 147° |
| 2026-04-25 04:44 | 38.49009 | -122.72391 | 34926 ft | 495 kts | 147° |
| 2026-04-25 04:44 | 38.43549 | -122.67046 | 34932 ft | 496 kts | 147° |
| 2026-04-25 04:45 | 38.38082 | -122.61693 | 34929 ft | 497 kts | 147° |
| 2026-04-25 04:45 | 38.32604 | -122.56351 | 34925 ft | 496 kts | 148° |
| 2026-04-25 04:46 | 38.27077 | -122.51117 | 34932 ft | 497 kts | 148° |
| 2026-04-25 04:46 | 38.21522 | -122.45834 | 34940 ft | 497 kts | 148° |
| 2026-04-25 04:47 | 38.16016 | -122.40583 | 34939 ft | 498 kts | 148° |
| 2026-04-25 04:47 | 38.10461 | -122.35286 | 34945 ft | 498 kts | 148° |
| 2026-04-25 04:48 | 38.05024 | -122.30100 | 34947 ft | 499 kts | 148° |
| 2026-04-25 04:48 | 37.99546 | -122.24870 | 34951 ft | 498 kts | 148° |
| 2026-04-25 04:49 | 37.93990 | -122.19568 | 34970 ft | 499 kts | 148° |
| 2026-04-25 04:49 | 37.88491 | -122.14314 | 34962 ft | 499 kts | 148° |
| 2026-04-25 04:50 | 37.82939 | -122.09011 | 34956 ft | 499 kts | 149° |
| 2026-04-25 04:50 | 37.77389 | -122.03705 | 34955 ft | 498 kts | 148° |
| 2026-04-25 04:51 | 37.71873 | -121.98432 | 34951 ft | 500 kts | 148° |
| 2026-04-25 04:51 | 37.66331 | -121.93147 | 34953 ft | 501 kts | 149° |
| 2026-04-25 04:52 | 37.60703 | -121.87935 | 34953 ft | 502 kts | 149° |
| 2026-04-25 04:52 | 37.55104 | -121.82729 | 34950 ft | 502 kts | 149° |
| 2026-04-25 04:53 | 37.49495 | -121.77503 | 34949 ft | 502 kts | 149° |
| 2026-04-25 04:53 | 37.43879 | -121.72270 | 34940 ft | 503 kts | 149° |
| 2026-04-25 04:54 | 37.38252 | -121.67023 | 34941 ft | 504 kts | 149° |
| 2026-04-25 04:54 | 37.32626 | -121.61779 | 34928 ft | 505 kts | 149° |
| 2026-04-25 04:55 | 37.26991 | -121.56518 | 34927 ft | 506 kts | 149° |
| 2026-04-25 04:55 | 37.21354 | -121.51259 | 34932 ft | 506 kts | 150° |
| 2026-04-25 04:56 | 37.15725 | -121.46001 | 34930 ft | 507 kts | 149° |
| 2026-04-25 04:56 | 37.10076 | -121.40726 | 34926 ft | 508 kts | 149° |
| 2026-04-25 04:57 | 37.04398 | -121.35418 | 34935 ft | 508 kts | 149° |
| 2026-04-25 04:57 | 36.98711 | -121.30136 | 34938 ft | 508 kts | 151° |
| 2026-04-25 04:58 | 36.93442 | -121.25369 | 34942 ft | 508 kts | 151° |
| 2026-04-25 04:58 | 36.87740 | -121.20187 | 34942 ft | 508 kts | 151° |
| 2026-04-25 04:59 | 36.82247 | -121.15180 | 34936 ft | 508 kts | 151° |
| 2026-04-25 04:59 | 36.76518 | -121.09959 | 34939 ft | 509 kts | 151° |
| 2026-04-25 05:00 | 36.70831 | -121.04775 | 34945 ft | 509 kts | 151° |
| 2026-04-25 05:00 | 36.65115 | -120.99562 | 34949 ft | 509 kts | 151° |
| 2026-04-25 05:01 | 36.59415 | -120.94363 | 34934 ft | 510 kts | 151° |
| 2026-04-25 05:01 | 36.53669 | -120.89117 | 34939 ft | 511 kts | 150° |
| 2026-04-25 05:02 | 36.47974 | -120.83915 | 34938 ft | 509 kts | 151° |
| 2026-04-25 05:02 | 36.42284 | -120.78717 | 34938 ft | 509 kts | 151° |
| 2026-04-25 05:03 | 36.36562 | -120.73491 | 34938 ft | 509 kts | 150° |
| 2026-04-25 05:03 | 36.30845 | -120.68317 | 34932 ft | 509 kts | 151° |
| 2026-04-25 05:04 | 36.25112 | -120.63232 | 34923 ft | 507 kts | 151° |
| 2026-04-25 05:04 | 36.19375 | -120.58118 | 34919 ft | 507 kts | 151° |
| 2026-04-25 05:05 | 36.13680 | -120.53037 | 34917 ft | 508 kts | 151° |
| 2026-04-25 05:05 | 36.07954 | -120.47927 | 34915 ft | 508 kts | 151° |
| 2026-04-25 05:06 | 36.02240 | -120.42828 | 34924 ft | 509 kts | 151° |
| 2026-04-25 05:06 | 35.96506 | -120.37707 | 34912 ft | 508 kts | 151° |
| 2026-04-25 05:07 | 35.90781 | -120.32588 | 34908 ft | 507 kts | 152° |
| 2026-04-25 05:07 | 35.85257 | -120.27652 | 34901 ft | 505 kts | 152° |
| 2026-04-25 05:08 | 35.79979 | -120.22933 | 34896 ft | 503 kts | 152° |
| 2026-04-25 05:08 | 35.74305 | -120.17859 | 34890 ft | 502 kts | 152° |
| 2026-04-25 05:09 | 35.68693 | -120.12820 | 34901 ft | 502 kts | 151° |
| 2026-04-25 05:09 | 35.62983 | -120.08006 | 34911 ft | 496 kts | 156° |
| 2026-04-25 05:10 | 35.57078 | -120.03597 | 34914 ft | 495 kts | 156° |
| 2026-04-25 05:10 | 35.51206 | -119.99211 | 34919 ft | 494 kts | 156° |
| 2026-04-25 05:11 | 35.45354 | -119.94819 | 34919 ft | 494 kts | 156° |
| 2026-04-25 05:11 | 35.39506 | -119.90425 | 34916 ft | 494 kts | 156° |
| 2026-04-25 05:12 | 35.30702 | -119.83819 | 34938 ft | 494 kts | 156° |
| 2026-04-25 05:12 | 35.25056 | -119.79029 | 34954 ft | 501 kts | 149° |
| 2026-04-25 05:13 | 35.19532 | -119.73779 | 34962 ft | 500 kts | 150° |
| 2026-04-25 05:13 | 35.16816 | -119.71223 | 34457 ft | 498 kts | 150° |
| 2026-04-25 05:13 | 35.14038 | -119.68636 | 33262 ft | 505 kts | 149° |
| 2026-04-25 05:14 | 35.11249 | -119.66042 | 32348 ft | 507 kts | 149° |
| 2026-04-25 05:14 | 35.08471 | -119.63451 | 31933 ft | 508 kts | 149° |
| 2026-04-25 05:14 | 35.05659 | -119.60832 | 31331 ft | 510 kts | 148° |
| 2026-04-25 05:15 | 34.99984 | -119.55544 | 29886 ft | 514 kts | 148° |
| 2026-04-25 05:15 | 34.97152 | -119.52902 | 29097 ft | 517 kts | 147° |
| 2026-04-25 05:15 | 34.94292 | -119.50232 | 28257 ft | 516 kts | 147° |
| 2026-04-25 05:15 | 34.91438 | -119.47573 | 27574 ft | 520 kts | 147° |
| 2026-04-25 05:16 | 34.88557 | -119.44939 | 26969 ft | 522 kts | 148° |
| 2026-04-25 05:16 | 34.85594 | -119.42308 | 26050 ft | 526 kts | 149° |
| 2026-04-25 05:16 | 34.82641 | -119.39690 | 25260 ft | 525 kts | 148° |
| 2026-04-25 05:16 | 34.79685 | -119.37054 | 25006 ft | 520 kts | 148° |
| 2026-04-25 05:17 | 34.76800 | -119.34471 | 24978 ft | 518 kts | 149° |
| 2026-04-25 05:17 | 34.73892 | -119.31870 | 24956 ft | 512 kts | 149° |
| 2026-04-25 05:17 | 34.71504 | -119.29768 | 24121 ft | 512 kts | 149° |
| 2026-04-25 05:17 | 34.68670 | -119.27312 | 23285 ft | 507 kts | 149° |
| 2026-04-25 05:18 | 34.65822 | -119.24833 | 22612 ft | 499 kts | 149° |
| 2026-04-25 05:18 | 34.63794 | -119.23068 | 22076 ft | 495 kts | 149° |
| 2026-04-25 05:18 | 34.60973 | -119.20637 | 21355 ft | 488 kts | 149° |
| 2026-04-25 05:18 | 34.58231 | -119.18285 | 21011 ft | 486 kts | 149° |
| 2026-04-25 05:19 | 34.55469 | -119.15902 | 21012 ft | 482 kts | 149° |
| 2026-04-25 05:19 | 34.52783 | -119.13536 | 20311 ft | 480 kts | 148° |
| 2026-04-25 05:19 | 34.50075 | -119.11130 | 19486 ft | 478 kts | 148° |
| 2026-04-25 05:19 | 34.47399 | -119.08752 | 19181 ft | 473 kts | 148° |
| 2026-04-25 05:20 | 34.44776 | -119.06422 | 18918 ft | 468 kts | 148° |
| 2026-04-25 05:20 | 34.42126 | -119.04091 | 18062 ft | 467 kts | 148° |
| 2026-04-25 05:20 | 34.39522 | -119.01849 | 17403 ft | 462 kts | 148° |
| 2026-04-25 05:20 | 34.36929 | -118.99611 | 16736 ft | 456 kts | 148° |
| 2026-04-25 05:21 | 34.34332 | -118.97364 | 16063 ft | 451 kts | 148° |
| 2026-04-25 05:21 | 34.31830 | -118.95149 | 15346 ft | 447 kts | 147° |
| 2026-04-25 05:21 | 34.29372 | -118.92902 | 14642 ft | 442 kts | 146° |
| 2026-04-25 05:21 | 34.26923 | -118.90662 | 14040 ft | 439 kts | 146° |
| 2026-04-25 05:22 | 34.24517 | -118.88466 | 13739 ft | 433 kts | 146° |
| 2026-04-25 05:22 | 34.22118 | -118.86261 | 12963 ft | 430 kts | 146° |
| 2026-04-25 05:22 | 34.19771 | -118.84103 | 12311 ft | 424 kts | 145° |
| 2026-04-25 05:22 | 34.17439 | -118.81956 | 11329 ft | 418 kts | 145° |
| 2026-04-25 05:23 | 34.15235 | -118.79797 | 10485 ft | 406 kts | 140° |
| 2026-04-25 05:23 | 34.13195 | -118.77571 | 10125 ft | 384 kts | 139° |
| 2026-04-25 05:23 | 34.11290 | -118.75465 | 9737 ft | 360 kts | 139° |
| 2026-04-25 05:23 | 34.09500 | -118.73494 | 9553 ft | 332 kts | 139° |
| 2026-04-25 05:24 | 34.07844 | -118.71677 | 9540 ft | 311 kts | 139° |
| 2026-04-25 05:24 | 34.06293 | -118.69981 | 9182 ft | 295 kts | 139° |
| 2026-04-25 05:24 | 34.04802 | -118.68362 | 8516 ft | 282 kts | 139° |
| 2026-04-25 05:24 | 34.03476 | -118.66685 | 8393 ft | 271 kts | 126° |
| 2026-04-25 05:25 | 34.02649 | -118.64673 | 8431 ft | 273 kts | 105° |
| 2026-04-25 05:25 | 34.02379 | -118.62442 | 8367 ft | 256 kts | 94° |
| 2026-04-25 05:25 | 34.02270 | -118.60351 | 8077 ft | 248 kts | 93° |
| 2026-04-25 05:25 | 34.02146 | -118.58319 | 7511 ft | 241 kts | 94° |
| 2026-04-25 05:26 | 34.01994 | -118.56313 | 7485 ft | 242 kts | 95° |
| 2026-04-25 05:26 | 34.01817 | -118.54275 | 7458 ft | 243 kts | 96° |
| 2026-04-25 05:26 | 34.01632 | -118.52265 | 7455 ft | 242 kts | 96° |
| 2026-04-25 05:26 | 34.01446 | -118.50266 | 7455 ft | 241 kts | 96° |
| 2026-04-25 05:27 | 34.01257 | -118.48266 | 7460 ft | 241 kts | 96° |
| 2026-04-25 05:27 | 34.01019 | -118.46244 | 7458 ft | 242 kts | 102° |
| 2026-04-25 05:27 | 34.00445 | -118.44337 | 7461 ft | 242 kts | 118° |
| 2026-04-25 05:27 | 33.99575 | -118.42646 | 7000 ft | 237 kts | 125° |
| 2026-04-25 05:28 | 33.98648 | -118.41027 | 6977 ft | 237 kts | 124° |
| 2026-04-25 05:28 | 33.97742 | -118.39391 | 6951 ft | 230 kts | 123° |
| 2026-04-25 05:28 | 33.96886 | -118.37791 | 6962 ft | 223 kts | 123° |
| 2026-04-25 05:28 | 33.96066 | -118.36231 | 6965 ft | 222 kts | 122° |
| 2026-04-25 05:29 | 33.95240 | -118.34651 | 6959 ft | 221 kts | 123° |
| 2026-04-25 05:29 | 33.94422 | -118.33079 | 6960 ft | 221 kts | 123° |
| 2026-04-25 05:29 | 33.93763 | -118.31788 | 6958 ft | 222 kts | 121° |
| 2026-04-25 05:29 | 33.93112 | -118.30216 | 6714 ft | 218 kts | 112° |
| 2026-04-25 05:30 | 33.92612 | -118.28490 | 6090 ft | 217 kts | 106° |
| 2026-04-25 05:30 | 33.92222 | -118.26756 | 5956 ft | 215 kts | 105° |
| 2026-04-25 05:30 | 33.91828 | -118.25027 | 5962 ft | 213 kts | 106° |
| 2026-04-25 05:30 | 33.91421 | -118.23341 | 5572 ft | 210 kts | 106° |
| 2026-04-25 05:31 | 33.91003 | -118.21669 | 4972 ft | 208 kts | 107° |
| 2026-04-25 05:31 | 33.90593 | -118.20033 | 4445 ft | 203 kts | 105° |
| 2026-04-25 05:31 | 33.90324 | -118.18403 | 4027 ft | 196 kts | 93° |
| 2026-04-25 05:31 | 33.90378 | -118.16768 | 3999 ft | 198 kts | 83° |
| 2026-04-25 05:32 | 33.90574 | -118.15125 | 3959 ft | 194 kts | 82° |
| 2026-04-25 05:32 | 33.90765 | -118.13561 | 3818 ft | 188 kts | 83° |
| 2026-04-25 05:32 | 33.90937 | -118.11985 | 3167 ft | 190 kts | 83° |
| 2026-04-25 05:32 | 33.91096 | -118.10435 | 2946 ft | 184 kts | 84° |
| 2026-04-25 05:33 | 33.91248 | -118.08894 | 2963 ft | 186 kts | 83° |
| 2026-04-25 05:33 | 33.91680 | -118.07439 | 2967 ft | 189 kts | 52° |
| 2026-04-25 05:33 | 33.92746 | -118.06587 | 2966 ft | 183 kts | 17° |
| 2026-04-25 05:33 | 33.93970 | -118.06622 | 2972 ft | 178 kts | 337° |
| 2026-04-25 05:34 | 33.94886 | -118.07605 | 2971 ft | 179 kts | 295° |
| 2026-04-25 05:34 | 33.95230 | -118.09042 | 2966 ft | 180 kts | 277° |
| 2026-04-25 05:34 | 33.95347 | -118.10530 | 2955 ft | 179 kts | 273° |
| 2026-04-25 05:34 | 33.95425 | -118.12028 | 2960 ft | 182 kts | 273° |
| 2026-04-25 05:35 | 33.95507 | -118.13605 | 2960 ft | 192 kts | 273° |
| 2026-04-25 05:35 | 33.95571 | -118.15226 | 2963 ft | 195 kts | 271° |
| 2026-04-25 05:35 | 33.95599 | -118.16864 | 2964 ft | 196 kts | 271° |
| 2026-04-25 05:35 | 33.95890 | -118.18458 | 2968 ft | 196 kts | 287° |
| 2026-04-25 05:36 | 33.96039 | -118.20104 | 2956 ft | 197 kts | 264° |
| 2026-04-25 05:36 | 33.95747 | -118.21686 | 2933 ft | 195 kts | 251° |
| 2026-04-25 05:36 | 33.95327 | -118.23180 | 2865 ft | 182 kts | 253° |
| 2026-04-25 05:36 | 33.95044 | -118.24631 | 2793 ft | 173 kts | 260° |
| 2026-04-25 05:37 | 33.94848 | -118.26020 | 2806 ft | 170 kts | 262° |
| 2026-04-25 05:37 | 33.94731 | -118.27487 | 2675 ft | 177 kts | 266° |
| 2026-04-25 05:37 | 33.94642 | -118.28933 | 2681 ft | 170 kts | 266° |
| 2026-04-25 05:37 | 33.94523 | -118.30344 | 2173 ft | 172 kts | 262° |
| 2026-04-25 05:38 | 33.94363 | -118.31787 | 1676 ft | 175 kts | 261° |
| 2026-04-25 05:38 | 33.94210 | -118.33225 | 1179 ft | 171 kts | 263° |
| 2026-04-25 05:38 | 33.94095 | -118.34583 | 791 ft | 157 kts | 264° |
| 2026-04-25 05:38 | 33.93980 | -118.35881 | 545 ft | 158 kts | 262° |
| 2026-04-25 05:39 | 33.93844 | -118.37170 | 341 ft | 155 kts | 261° |
| 2026-04-25 05:39 | 33.93715 | -118.38416 | 137 ft | 144 kts | 263° |
| 2026-04-25 05:39 | 33.93621 | -118.39374 | 113 ft | 73 kts | 263° |
| 2026-04-25 05:39 | 33.93586 | -118.39713 | 117 ft | 22 kts | 263° |
| 2026-04-25 05:40 | 33.93564 | -118.39909 | 120 ft | 26 kts | 262° |
| 2026-04-25 05:40 | 33.93517 | -118.40123 | 123 ft | 25 kts | 244° |
| 2026-04-25 05:40 | 33.93457 | -118.40192 | 124 ft | 5 kts | 192° |
| 2026-04-25 05:40 | 33.93441 | -118.40187 | 124 ft | 0 kts | 141° |
| 2026-04-25 05:41 | 33.93440 | -118.40185 | 124 ft | 0 kts | 140° |
| 2026-04-25 05:41 | 33.93431 | -118.40170 | 124 ft | 6 kts | 119° |
| 2026-04-25 05:41 | 33.93430 | -118.40054 | 122 ft | 20 kts | 82° |
| 2026-04-25 05:42 | 33.93450 | -118.39868 | 119 ft | 24 kts | 83° |
| 2026-04-25 05:42 | 33.93469 | -118.39687 | 117 ft | 19 kts | 83° |
| 2026-04-25 05:42 | 33.93487 | -118.39518 | 115 ft | 21 kts | 83° |
| 2026-04-25 05:42 | 33.93504 | -118.39333 | 113 ft | 22 kts | 84° |
| 2026-04-25 05:43 | 33.93525 | -118.39140 | 111 ft | 23 kts | 84° |
| 2026-04-25 05:43 | 33.93536 | -118.38973 | 110 ft | 17 kts | 88° |
| 2026-04-25 05:43 | 33.93541 | -118.38830 | 109 ft | 15 kts | 83° |
| 2026-04-25 05:43 | 33.93552 | -118.38749 | 109 ft | 3 kts | 120° |
| 2026-04-25 05:44 | 33.93543 | -118.38745 | 109 ft | 1 kts | 175° |
| 2026-04-25 05:44 | 33.93509 | -118.38763 | 109 ft | 7 kts | 216° |
| 2026-04-25 05:44 | 33.93467 | -118.38783 | 109 ft | 5 kts | 179° |
| 2026-04-25 05:44 | 33.93435 | -118.38779 | 109 ft | 2 kts | 172° |
| 2026-04-25 05:45 | 33.93418 | -118.38776 | 109 ft | 0 kts | 172° |
| 2026-04-25 05:45 | 33.93413 | -118.38775 | 109 ft | 0 kts | 172° |
| 2026-04-25 05:45 | 33.93409 | -118.38774 | 109 ft | 0 kts | 172° |